sensor_id;sensor_type;location;lat;lon;timestamp;P1;durP1;ratioP1;P2;durP2;ratioP2
73940;SDS011;62294;48.554;10.202;2022-09-17T00:01:00;2.05;;;1.80;;
73940;SDS011;62294;48.554;10.202;2022-09-17T00:03:28;2.03;;;1.55;;
73940;SDS011;62294;48.554;10.202;2022-09-17T00:06:02;2.20;;;1.80;;
73940;SDS011;62294;48.554;10.202;2022-09-17T00:08:33;1.92;;;1.63;;
73940;SDS011;62294;48.554;10.202;2022-09-17T00:11:13;3.42;;;1.60;;
73940;SDS011;62294;48.554;10.202;2022-09-17T00:13:53;2.63;;;1.52;;
73940;SDS011;62294;48.554;10.202;2022-09-17T00:16:22;2.35;;;1.30;;
73940;SDS011;62294;48.554;10.202;2022-09-17T00:18:57;1.65;;;1.40;;
73940;SDS011;62294;48.554;10.202;2022-09-17T00:21:25;3.60;;;1.98;;
73940;SDS011;62294;48.554;10.202;2022-09-17T00:23:52;2.20;;;1.40;;
73940;SDS011;62294;48.554;10.202;2022-09-17T00:26:20;1.95;;;1.67;;
73940;SDS011;62294;48.554;10.202;2022-09-17T00:28:51;1.48;;;1.38;;
73940;SDS011;62294;48.554;10.202;2022-09-17T00:31:19;2.20;;;1.50;;
73940;SDS011;62294;48.554;10.202;2022-09-17T00:33:46;1.73;;;1.55;;
73940;SDS011;62294;48.554;10.202;2022-09-17T00:36:14;3.60;;;1.42;;
73940;SDS011;62294;48.554;10.202;2022-09-17T00:38:41;2.00;;;1.50;;
73940;SDS011;62294;48.554;10.202;2022-09-17T00:41:08;1.27;;;1.17;;
73940;SDS011;62294;48.554;10.202;2022-09-17T00:43:39;2.50;;;1.40;;
73940;SDS011;62294;48.554;10.202;2022-09-17T00:46:42;1.33;;;1.23;;
73940;SDS011;62294;48.554;10.202;2022-09-17T00:49:10;1.42;;;1.25;;
73940;SDS011;62294;48.554;10.202;2022-09-17T00:51:38;3.58;;;1.50;;
73940;SDS011;62294;48.554;10.202;2022-09-17T00:54:09;0.93;;;0.93;;
73940;SDS011;62294;48.554;10.202;2022-09-17T00:56:37;2.25;;;1.13;;
73940;SDS011;62294;48.554;10.202;2022-09-17T00:59:06;1.80;;;1.17;;
73940;SDS011;62294;48.554;10.202;2022-09-17T01:01:33;1.75;;;1.40;;
73940;SDS011;62294;48.554;10.202;2022-09-17T01:04:00;2.13;;;1.30;;
73940;SDS011;62294;48.554;10.202;2022-09-17T01:11:32;1.75;;;1.40;;
73940;SDS011;62294;48.554;10.202;2022-09-17T01:25:41;3.05;;;1.20;;
73940;SDS011;62294;48.554;10.202;2022-09-17T01:33:58;1.52;;;1.08;;
73940;SDS011;62294;48.554;10.202;2022-09-17T01:36:40;1.20;;;1.10;;
73940;SDS011;62294;48.554;10.202;2022-09-17T01:39:28;1.35;;;1.10;;
73940;SDS011;62294;48.554;10.202;2022-09-17T01:44:27;1.27;;;1.17;;
73940;SDS011;62294;48.554;10.202;2022-09-17T01:47:04;2.25;;;1.30;;
73940;SDS011;62294;48.554;10.202;2022-09-17T01:49:33;1.33;;;1.23;;
73940;SDS011;62294;48.554;10.202;2022-09-17T01:52:03;5.05;;;1.20;;
73940;SDS011;62294;48.554;10.202;2022-09-17T01:54:45;2.88;;;1.40;;
73940;SDS011;62294;48.554;10.202;2022-09-17T01:57:18;4.07;;;1.30;;
73940;SDS011;62294;48.554;10.202;2022-09-17T02:02:29;0.80;;;0.80;;
73940;SDS011;62294;48.554;10.202;2022-09-17T02:05:04;1.90;;;1.20;;
73940;SDS011;62294;48.554;10.202;2022-09-17T02:07:37;2.10;;;1.20;;
73940;SDS011;62294;48.554;10.202;2022-09-17T02:10:09;3.03;;;1.13;;
73940;SDS011;62294;48.554;10.202;2022-09-17T02:12:42;2.95;;;1.20;;
73940;SDS011;62294;48.554;10.202;2022-09-17T02:15:14;2.50;;;1.20;;
73940;SDS011;62294;48.554;10.202;2022-09-17T02:20:19;3.08;;;1.52;;
73940;SDS011;62294;48.554;10.202;2022-09-17T02:22:53;3.03;;;1.13;;
73940;SDS011;62294;48.554;10.202;2022-09-17T02:25:30;1.65;;;1.05;;
73940;SDS011;62294;48.554;10.202;2022-09-17T02:28:04;1.73;;;1.17;;
73940;SDS011;62294;48.554;10.202;2022-09-17T02:30:50;3.33;;;1.02;;
73940;SDS011;62294;48.554;10.202;2022-09-17T02:33:18;1.85;;;1.20;;
73940;SDS011;62294;48.554;10.202;2022-09-17T02:35:45;1.52;;;1.10;;
73940;SDS011;62294;48.554;10.202;2022-09-17T02:38:12;1.65;;;1.10;;
73940;SDS011;62294;48.554;10.202;2022-09-17T02:40:46;4.15;;;1.48;;
73940;SDS011;62294;48.554;10.202;2022-09-17T02:43:37;1.95;;;1.33;;
73940;SDS011;62294;48.554;10.202;2022-09-17T02:49:09;1.73;;;1.30;;
73940;SDS011;62294;48.554;10.202;2022-09-17T02:52:15;4.75;;;1.58;;
73940;SDS011;62294;48.554;10.202;2022-09-17T02:55:23;2.85;;;1.58;;
73940;SDS011;62294;48.554;10.202;2022-09-17T02:58:08;2.47;;;1.45;;
73940;SDS011;62294;48.554;10.202;2022-09-17T03:00:43;2.53;;;1.45;;
73940;SDS011;62294;48.554;10.202;2022-09-17T03:05:45;2.72;;;1.20;;
73940;SDS011;62294;48.554;10.202;2022-09-17T03:08:15;2.08;;;1.83;;
73940;SDS011;62294;48.554;10.202;2022-09-17T03:10:45;4.13;;;1.77;;
73940;SDS011;62294;48.554;10.202;2022-09-17T03:13:14;4.10;;;1.90;;
73940;SDS011;62294;48.554;10.202;2022-09-17T03:15:41;2.17;;;1.58;;
73940;SDS011;62294;48.554;10.202;2022-09-17T03:18:08;1.83;;;1.63;;
73940;SDS011;62294;48.554;10.202;2022-09-17T03:20:35;2.58;;;1.70;;
73940;SDS011;62294;48.554;10.202;2022-09-17T03:23:01;2.15;;;1.83;;
73940;SDS011;62294;48.554;10.202;2022-09-17T03:25:28;2.88;;;2.05;;
73940;SDS011;62294;48.554;10.202;2022-09-17T03:27:54;3.22;;;2.08;;
73940;SDS011;62294;48.554;10.202;2022-09-17T03:30:21;2.20;;;1.90;;
73940;SDS011;62294;48.554;10.202;2022-09-17T03:32:47;6.82;;;2.67;;
73940;SDS011;62294;48.554;10.202;2022-09-17T03:35:14;4.07;;;2.08;;
73940;SDS011;62294;48.554;10.202;2022-09-17T03:37:40;4.60;;;2.17;;
73940;SDS011;62294;48.554;10.202;2022-09-17T03:40:08;2.60;;;1.90;;
73940;SDS011;62294;48.554;10.202;2022-09-17T03:42:35;2.40;;;1.92;;
73940;SDS011;62294;48.554;10.202;2022-09-17T03:45:01;3.53;;;1.83;;
73940;SDS011;62294;48.554;10.202;2022-09-17T03:47:27;8.45;;;2.15;;
73940;SDS011;62294;48.554;10.202;2022-09-17T03:49:54;4.93;;;1.83;;
73940;SDS011;62294;48.554;10.202;2022-09-17T03:52:21;2.70;;;1.85;;
73940;SDS011;62294;48.554;10.202;2022-09-17T03:54:47;4.60;;;1.80;;
73940;SDS011;62294;48.554;10.202;2022-09-17T03:57:14;3.67;;;1.83;;
73940;SDS011;62294;48.554;10.202;2022-09-17T03:59:40;4.75;;;1.52;;
73940;SDS011;62294;48.554;10.202;2022-09-17T04:02:07;6.07;;;1.90;;
73940;SDS011;62294;48.554;10.202;2022-09-17T04:04:34;4.78;;;1.90;;
73940;SDS011;62294;48.554;10.202;2022-09-17T04:07:01;2.97;;;1.77;;
73940;SDS011;62294;48.554;10.202;2022-09-17T04:09:28;2.83;;;1.60;;
73940;SDS011;62294;48.554;10.202;2022-09-17T04:11:55;1.88;;;1.50;;
73940;SDS011;62294;48.554;10.202;2022-09-17T04:14:21;1.88;;;1.50;;
73940;SDS011;62294;48.554;10.202;2022-09-17T04:16:48;3.88;;;1.80;;
73940;SDS011;62294;48.554;10.202;2022-09-17T04:19:15;8.10;;;1.70;;
73940;SDS011;62294;48.554;10.202;2022-09-17T04:21:41;1.67;;;1.30;;
73940;SDS011;62294;48.554;10.202;2022-09-17T04:24:08;4.18;;;1.83;;
73940;SDS011;62294;48.554;10.202;2022-09-17T04:26:34;1.60;;;1.48;;
73940;SDS011;62294;48.554;10.202;2022-09-17T04:29:01;5.90;;;1.40;;
73940;SDS011;62294;48.554;10.202;2022-09-17T04:31:28;3.70;;;1.80;;
73940;SDS011;62294;48.554;10.202;2022-09-17T04:33:54;3.13;;;1.50;;
73940;SDS011;62294;48.554;10.202;2022-09-17T04:36:21;2.45;;;1.30;;
73940;SDS011;62294;48.554;10.202;2022-09-17T04:38:47;1.65;;;1.33;;
73940;SDS011;62294;48.554;10.202;2022-09-17T04:41:14;6.93;;;2.35;;
73940;SDS011;62294;48.554;10.202;2022-09-17T04:43:41;5.95;;;1.80;;
73940;SDS011;62294;48.554;10.202;2022-09-17T04:46:08;4.30;;;1.52;;
73940;SDS011;62294;48.554;10.202;2022-09-17T04:48:34;2.90;;;1.70;;
73940;SDS011;62294;48.554;10.202;2022-09-17T04:51:01;3.45;;;1.45;;
73940;SDS011;62294;48.554;10.202;2022-09-17T04:53:27;4.93;;;1.73;;
73940;SDS011;62294;48.554;10.202;2022-09-17T04:55:53;6.53;;;1.50;;
73940;SDS011;62294;48.554;10.202;2022-09-17T04:58:20;5.38;;;1.70;;
73940;SDS011;62294;48.554;10.202;2022-09-17T05:00:47;7.03;;;1.58;;
73940;SDS011;62294;48.554;10.202;2022-09-17T05:03:13;6.18;;;1.50;;
73940;SDS011;62294;48.554;10.202;2022-09-17T05:05:39;4.25;;;1.55;;
73940;SDS011;62294;48.554;10.202;2022-09-17T05:08:06;3.10;;;1.58;;
73940;SDS011;62294;48.554;10.202;2022-09-17T05:10:33;4.30;;;2.20;;
73940;SDS011;62294;48.554;10.202;2022-09-17T05:12:59;2.38;;;1.33;;
73940;SDS011;62294;48.554;10.202;2022-09-17T05:15:26;2.25;;;1.17;;
73940;SDS011;62294;48.554;10.202;2022-09-17T05:17:52;4.82;;;1.58;;
73940;SDS011;62294;48.554;10.202;2022-09-17T05:20:19;2.08;;;1.55;;
73940;SDS011;62294;48.554;10.202;2022-09-17T05:22:47;3.47;;;1.40;;
73940;SDS011;62294;48.554;10.202;2022-09-17T05:25:16;5.25;;;1.95;;
73940;SDS011;62294;48.554;10.202;2022-09-17T05:27:44;3.70;;;1.50;;
73940;SDS011;62294;48.554;10.202;2022-09-17T05:30:11;5.22;;;1.90;;
73940;SDS011;62294;48.554;10.202;2022-09-17T05:32:38;2.90;;;1.58;;
73940;SDS011;62294;48.554;10.202;2022-09-17T05:35:05;3.13;;;1.65;;
73940;SDS011;62294;48.554;10.202;2022-09-17T05:37:33;5.22;;;1.60;;
73940;SDS011;62294;48.554;10.202;2022-09-17T05:40:01;6.03;;;2.58;;
73940;SDS011;62294;48.554;10.202;2022-09-17T05:42:28;5.78;;;1.85;;
73940;SDS011;62294;48.554;10.202;2022-09-17T05:44:55;3.22;;;1.58;;
73940;SDS011;62294;48.554;10.202;2022-09-17T05:47:21;5.13;;;1.85;;
73940;SDS011;62294;48.554;10.202;2022-09-17T05:49:48;3.25;;;1.83;;
73940;SDS011;62294;48.554;10.202;2022-09-17T05:52:14;5.40;;;1.98;;
73940;SDS011;62294;48.554;10.202;2022-09-17T05:54:41;3.70;;;1.75;;
73940;SDS011;62294;48.554;10.202;2022-09-17T05:57:08;5.93;;;1.92;;
73940;SDS011;62294;48.554;10.202;2022-09-17T05:59:34;2.00;;;1.60;;
73940;SDS011;62294;48.554;10.202;2022-09-17T06:02:01;2.97;;;1.70;;
73940;SDS011;62294;48.554;10.202;2022-09-17T06:04:28;3.92;;;1.75;;
73940;SDS011;62294;48.554;10.202;2022-09-17T06:07:02;2.80;;;1.73;;
73940;SDS011;62294;48.554;10.202;2022-09-17T06:09:35;4.38;;;2.05;;
73940;SDS011;62294;48.554;10.202;2022-09-17T06:12:06;2.50;;;1.70;;
73940;SDS011;62294;48.554;10.202;2022-09-17T06:14:33;3.17;;;2.00;;
73940;SDS011;62294;48.554;10.202;2022-09-17T06:16:59;5.72;;;1.63;;
73940;SDS011;62294;48.554;10.202;2022-09-17T06:19:26;6.13;;;2.10;;
73940;SDS011;62294;48.554;10.202;2022-09-17T06:21:53;4.93;;;1.80;;
73940;SDS011;62294;48.554;10.202;2022-09-17T06:24:20;3.47;;;1.70;;
73940;SDS011;62294;48.554;10.202;2022-09-17T06:26:46;2.78;;;1.70;;
73940;SDS011;62294;48.554;10.202;2022-09-17T06:29:13;2.75;;;1.80;;
73940;SDS011;62294;48.554;10.202;2022-09-17T06:31:40;4.07;;;1.90;;
73940;SDS011;62294;48.554;10.202;2022-09-17T06:34:09;3.90;;;1.58;;
73940;SDS011;62294;48.554;10.202;2022-09-17T06:36:36;4.75;;;2.10;;
73940;SDS011;62294;48.554;10.202;2022-09-17T06:39:03;5.22;;;2.00;;
73940;SDS011;62294;48.554;10.202;2022-09-17T06:41:29;5.93;;;2.33;;
73940;SDS011;62294;48.554;10.202;2022-09-17T06:43:56;5.18;;;1.75;;
73940;SDS011;62294;48.554;10.202;2022-09-17T06:46:23;4.68;;;1.85;;
73940;SDS011;62294;48.554;10.202;2022-09-17T06:48:49;4.68;;;2.03;;
73940;SDS011;62294;48.554;10.202;2022-09-17T06:51:16;6.07;;;2.00;;
73940;SDS011;62294;48.554;10.202;2022-09-17T06:53:42;5.07;;;2.20;;
73940;SDS011;62294;48.554;10.202;2022-09-17T06:56:09;7.22;;;2.20;;
73940;SDS011;62294;48.554;10.202;2022-09-17T06:58:36;4.90;;;1.90;;
73940;SDS011;62294;48.554;10.202;2022-09-17T07:01:03;5.65;;;2.10;;
73940;SDS011;62294;48.554;10.202;2022-09-17T07:03:31;6.38;;;2.35;;
73940;SDS011;62294;48.554;10.202;2022-09-17T07:05:58;6.05;;;1.80;;
73940;SDS011;62294;48.554;10.202;2022-09-17T07:08:25;6.20;;;2.25;;
73940;SDS011;62294;48.554;10.202;2022-09-17T07:10:55;5.00;;;1.88;;
73940;SDS011;62294;48.554;10.202;2022-09-17T07:13:23;6.70;;;2.53;;
73940;SDS011;62294;48.554;10.202;2022-09-17T07:15:51;6.30;;;2.10;;
73940;SDS011;62294;48.554;10.202;2022-09-17T07:18:23;5.22;;;2.15;;
73940;SDS011;62294;48.554;10.202;2022-09-17T07:20:51;8.93;;;2.00;;
73940;SDS011;62294;48.554;10.202;2022-09-17T07:23:25;4.95;;;1.92;;
73940;SDS011;62294;48.554;10.202;2022-09-17T07:25:54;8.27;;;1.98;;
73940;SDS011;62294;48.554;10.202;2022-09-17T07:28:26;6.05;;;1.92;;
73940;SDS011;62294;48.554;10.202;2022-09-17T07:30:54;4.95;;;2.05;;
73940;SDS011;62294;48.554;10.202;2022-09-17T07:33:22;5.00;;;2.00;;
73940;SDS011;62294;48.554;10.202;2022-09-17T07:35:51;4.40;;;1.60;;
73940;SDS011;62294;48.554;10.202;2022-09-17T07:38:28;7.00;;;2.10;;
73940;SDS011;62294;48.554;10.202;2022-09-17T07:40:59;6.47;;;1.88;;
73940;SDS011;62294;48.554;10.202;2022-09-17T07:43:39;4.88;;;1.92;;
73940;SDS011;62294;48.554;10.202;2022-09-17T07:46:07;2.25;;;1.80;;
73940;SDS011;62294;48.554;10.202;2022-09-17T07:48:39;6.18;;;1.75;;
73940;SDS011;62294;48.554;10.202;2022-09-17T07:51:05;3.75;;;2.08;;
73940;SDS011;62294;48.554;10.202;2022-09-17T07:53:32;6.57;;;1.85;;
73940;SDS011;62294;48.554;10.202;2022-09-17T07:55:58;4.55;;;2.70;;
73940;SDS011;62294;48.554;10.202;2022-09-17T07:58:29;3.88;;;1.75;;
73940;SDS011;62294;48.554;10.202;2022-09-17T08:01:01;2.15;;;1.55;;
73940;SDS011;62294;48.554;10.202;2022-09-17T08:03:29;4.88;;;1.90;;
73940;SDS011;62294;48.554;10.202;2022-09-17T08:06:05;4.20;;;1.52;;
73940;SDS011;62294;48.554;10.202;2022-09-17T08:08:32;5.32;;;1.90;;
73940;SDS011;62294;48.554;10.202;2022-09-17T08:11:01;5.53;;;1.77;;
73940;SDS011;62294;48.554;10.202;2022-09-17T08:13:29;4.82;;;1.30;;
73940;SDS011;62294;48.554;10.202;2022-09-17T08:16:06;3.53;;;1.67;;
73940;SDS011;62294;48.554;10.202;2022-09-17T08:18:34;5.50;;;1.60;;
73940;SDS011;62294;48.554;10.202;2022-09-17T08:21:02;2.85;;;1.63;;
73940;SDS011;62294;48.554;10.202;2022-09-17T08:23:30;5.57;;;1.60;;
73940;SDS011;62294;48.554;10.202;2022-09-17T08:25:57;4.13;;;1.63;;
73940;SDS011;62294;48.554;10.202;2022-09-17T08:28:26;1.77;;;1.50;;
73940;SDS011;62294;48.554;10.202;2022-09-17T08:30:58;2.97;;;1.90;;
73940;SDS011;62294;48.554;10.202;2022-09-17T08:33:33;5.30;;;1.92;;
73940;SDS011;62294;48.554;10.202;2022-09-17T08:36:01;3.58;;;1.80;;
73940;SDS011;62294;48.554;10.202;2022-09-17T08:38:29;10.73;;;1.73;;
73940;SDS011;62294;48.554;10.202;2022-09-17T08:46:33;3.95;;;1.73;;
73940;SDS011;62294;48.554;10.202;2022-09-17T08:49:15;3.20;;;1.45;;
73940;SDS011;62294;48.554;10.202;2022-09-17T09:03:30;1.60;;;0.90;;
73940;SDS011;62294;48.554;10.202;2022-09-17T09:06:03;2.03;;;1.02;;
73940;SDS011;62294;48.554;10.202;2022-09-17T09:08:37;1.67;;;1.30;;
73940;SDS011;62294;48.554;10.202;2022-09-17T09:11:12;1.63;;;1.08;;
73940;SDS011;62294;48.554;10.202;2022-09-17T09:13:43;1.17;;;1.00;;
73940;SDS011;62294;48.554;10.202;2022-09-17T09:16:24;1.50;;;1.02;;
73940;SDS011;62294;48.554;10.202;2022-09-17T09:18:55;0.57;;;0.57;;
73940;SDS011;62294;48.554;10.202;2022-09-17T09:22:13;2.25;;;1.10;;
73940;SDS011;62294;48.554;10.202;2022-09-17T09:24:23;0.60;;;0.60;;
73940;SDS011;62294;48.554;10.202;2022-09-17T09:29:34;0.75;;;0.60;;
73940;SDS011;62294;48.554;10.202;2022-09-17T09:34:47;0.82;;;0.65;;
73940;SDS011;62294;48.554;10.202;2022-09-17T09:39:47;0.73;;;0.60;;
73940;SDS011;62294;48.554;10.202;2022-09-17T09:44:57;7.68;;;3.80;;
73940;SDS011;62294;48.554;10.202;2022-09-17T09:58:58;2.75;;;1.40;;
73940;SDS011;62294;48.554;10.202;2022-09-17T10:01:24;1.55;;;1.20;;
73940;SDS011;62294;48.554;10.202;2022-09-17T10:03:53;2.30;;;1.70;;
73940;SDS011;62294;48.554;10.202;2022-09-17T10:06:23;3.65;;;1.63;;
73940;SDS011;62294;48.554;10.202;2022-09-17T10:11:27;6.22;;;1.80;;
73940;SDS011;62294;48.554;10.202;2022-09-17T10:14:43;2.88;;;1.55;;
73940;SDS011;62294;48.554;10.202;2022-09-17T10:16:47;2.15;;;1.70;;
73940;SDS011;62294;48.554;10.202;2022-09-17T10:19:20;1.42;;;1.33;;
73940;SDS011;62294;48.554;10.202;2022-09-17T10:21:51;1.73;;;1.20;;
73940;SDS011;62294;48.554;10.202;2022-09-17T10:24:27;6.38;;;2.03;;
73940;SDS011;62294;48.554;10.202;2022-09-17T10:27:01;1.88;;;1.70;;
73940;SDS011;62294;48.554;10.202;2022-09-17T10:29:35;6.20;;;1.80;;
73940;SDS011;62294;48.554;10.202;2022-09-17T10:32:02;5.95;;;1.65;;
73940;SDS011;62294;48.554;10.202;2022-09-17T10:34:32;3.55;;;1.52;;
73940;SDS011;62294;48.554;10.202;2022-09-17T10:36:59;5.15;;;1.95;;
73940;SDS011;62294;48.554;10.202;2022-09-17T10:41:53;4.18;;;2.13;;
73940;SDS011;62294;48.554;10.202;2022-09-17T10:44:28;5.63;;;2.10;;
73940;SDS011;62294;48.554;10.202;2022-09-17T10:47:09;3.58;;;2.03;;
73940;SDS011;62294;48.554;10.202;2022-09-17T10:49:41;5.80;;;2.00;;
73940;SDS011;62294;48.554;10.202;2022-09-17T10:57:23;3.92;;;1.92;;
73940;SDS011;62294;48.554;10.202;2022-09-17T11:00:07;6.95;;;2.45;;
73940;SDS011;62294;48.554;10.202;2022-09-17T11:05:46;4.20;;;1.40;;
73940;SDS011;62294;48.554;10.202;2022-09-17T11:08:24;3.13;;;1.45;;
73940;SDS011;62294;48.554;10.202;2022-09-17T11:11:11;3.35;;;1.85;;
73940;SDS011;62294;48.554;10.202;2022-09-17T11:16:21;4.07;;;1.67;;
73940;SDS011;62294;48.554;10.202;2022-09-17T11:24:59;3.65;;;1.35;;
73940;SDS011;62294;48.554;10.202;2022-09-17T11:30:55;4.50;;;1.25;;
73940;SDS011;62294;48.554;10.202;2022-09-17T11:33:47;3.08;;;1.08;;
73940;SDS011;62294;48.554;10.202;2022-09-17T11:36:17;4.28;;;1.27;;
73940;SDS011;62294;48.554;10.202;2022-09-17T11:38:50;3.37;;;1.47;;
73940;SDS011;62294;48.554;10.202;2022-09-17T11:41:20;4.50;;;1.60;;
73940;SDS011;62294;48.554;10.202;2022-09-17T11:44:27;2.33;;;1.48;;
73940;SDS011;62294;48.554;10.202;2022-09-17T11:47:21;2.25;;;1.10;;
73940;SDS011;62294;48.554;10.202;2022-09-17T11:49:56;3.75;;;1.00;;
73940;SDS011;62294;48.554;10.202;2022-09-17T11:52:32;4.60;;;1.42;;
73940;SDS011;62294;48.554;10.202;2022-09-17T11:55:18;3.63;;;1.10;;
73940;SDS011;62294;48.554;10.202;2022-09-17T11:57:50;2.92;;;1.13;;
73940;SDS011;62294;48.554;10.202;2022-09-17T12:08:26;3.42;;;1.20;;
73940;SDS011;62294;48.554;10.202;2022-09-17T12:11:00;3.05;;;1.73;;
73940;SDS011;62294;48.554;10.202;2022-09-17T12:13:35;3.72;;;1.55;;
73940;SDS011;62294;48.554;10.202;2022-09-17T12:16:10;3.95;;;1.50;;
73940;SDS011;62294;48.554;10.202;2022-09-17T12:18:50;4.25;;;1.30;;
73940;SDS011;62294;48.554;10.202;2022-09-17T12:21:25;3.58;;;1.10;;
73940;SDS011;62294;48.554;10.202;2022-09-17T12:29:28;6.80;;;1.30;;
73940;SDS011;62294;48.554;10.202;2022-09-17T12:32:27;4.93;;;1.83;;
73940;SDS011;62294;48.554;10.202;2022-09-17T12:43:19;4.45;;;1.40;;
73940;SDS011;62294;48.554;10.202;2022-09-17T12:46:37;1.20;;;1.10;;
73940;SDS011;62294;48.554;10.202;2022-09-17T12:59:58;1.15;;;1.05;;
73940;SDS011;62294;48.554;10.202;2022-09-17T13:02:40;0.60;;;0.60;;
73940;SDS011;62294;48.554;10.202;2022-09-17T13:05:35;0.52;;;0.40;;
73940;SDS011;62294;48.554;10.202;2022-09-17T13:08:29;0.57;;;0.50;;
73940;SDS011;62294;48.554;10.202;2022-09-17T13:11:10;0.52;;;0.52;;
73940;SDS011;62294;48.554;10.202;2022-09-17T13:17:17;1.75;;;0.43;;
73940;SDS011;62294;48.554;10.202;2022-09-17T13:19:55;1.02;;;0.40;;
73940;SDS011;62294;48.554;10.202;2022-09-17T13:22:54;0.82;;;0.45;;
73940;SDS011;62294;48.554;10.202;2022-09-17T13:25:22;3.50;;;0.57;;
73940;SDS011;62294;48.554;10.202;2022-09-17T13:28:02;1.75;;;0.50;;
73940;SDS011;62294;48.554;10.202;2022-09-17T13:39:05;1.90;;;0.70;;
73940;SDS011;62294;48.554;10.202;2022-09-17T13:41:34;2.28;;;0.90;;
73940;SDS011;62294;48.554;10.202;2022-09-17T13:44:04;0.60;;;0.60;;
73940;SDS011;62294;48.554;10.202;2022-09-17T13:46:32;0.98;;;0.52;;
73940;SDS011;62294;48.554;10.202;2022-09-17T13:49:05;2.08;;;0.93;;
73940;SDS011;62294;48.554;10.202;2022-09-17T13:54:06;0.68;;;0.68;;
73940;SDS011;62294;48.554;10.202;2022-09-17T13:56:41;5.95;;;1.08;;
73940;SDS011;62294;48.554;10.202;2022-09-17T13:59:13;1.02;;;0.85;;
73940;SDS011;62294;48.554;10.202;2022-09-17T14:21:17;1.92;;;0.90;;
73940;SDS011;62294;48.554;10.202;2022-09-17T14:23:53;2.42;;;1.40;;
73940;SDS011;62294;48.554;10.202;2022-09-17T14:26:38;2.33;;;1.25;;
73940;SDS011;62294;48.554;10.202;2022-09-17T14:31:48;1.73;;;0.70;;
73940;SDS011;62294;48.554;10.202;2022-09-17T14:34:18;0.50;;;0.50;;
73940;SDS011;62294;48.554;10.202;2022-09-17T14:36:47;1.00;;;0.50;;
73940;SDS011;62294;48.554;10.202;2022-09-17T14:39:26;2.67;;;0.98;;
73940;SDS011;62294;48.554;10.202;2022-09-17T14:42:01;0.57;;;0.47;;
73940;SDS011;62294;48.554;10.202;2022-09-17T14:44:35;0.98;;;0.60;;
73940;SDS011;62294;48.554;10.202;2022-09-17T14:47:05;1.20;;;0.65;;
73940;SDS011;62294;48.554;10.202;2022-09-17T14:49:39;0.65;;;0.65;;
73940;SDS011;62294;48.554;10.202;2022-09-17T14:55:21;1.27;;;0.60;;
73940;SDS011;62294;48.554;10.202;2022-09-17T14:57:57;2.25;;;0.90;;
73940;SDS011;62294;48.554;10.202;2022-09-17T15:00:33;1.08;;;0.60;;
73940;SDS011;62294;48.554;10.202;2022-09-17T15:03:03;0.88;;;0.70;;
73940;SDS011;62294;48.554;10.202;2022-09-17T15:05:35;1.33;;;0.80;;
73940;SDS011;62294;48.554;10.202;2022-09-17T15:08:20;2.10;;;0.80;;
73940;SDS011;62294;48.554;10.202;2022-09-17T15:10:56;0.75;;;0.50;;
73940;SDS011;62294;48.554;10.202;2022-09-17T15:13:33;1.50;;;0.68;;
73940;SDS011;62294;48.554;10.202;2022-09-17T15:16:21;1.50;;;0.68;;
73940;SDS011;62294;48.554;10.202;2022-09-17T15:24:17;0.82;;;0.57;;
73940;SDS011;62294;48.554;10.202;2022-09-17T15:30:01;0.50;;;0.50;;
73940;SDS011;62294;48.554;10.202;2022-09-17T15:32:31;1.70;;;0.70;;
73940;SDS011;62294;48.554;10.202;2022-09-17T15:37:44;0.82;;;0.50;;
73940;SDS011;62294;48.554;10.202;2022-09-17T15:40:33;0.45;;;0.45;;
73940;SDS011;62294;48.554;10.202;2022-09-17T15:43:05;0.35;;;0.35;;
73940;SDS011;62294;48.554;10.202;2022-09-17T15:45:52;1.50;;;0.70;;
73940;SDS011;62294;48.554;10.202;2022-09-17T15:51:03;1.52;;;0.80;;
73940;SDS011;62294;48.554;10.202;2022-09-17T15:53:32;0.47;;;0.40;;
73940;SDS011;62294;48.554;10.202;2022-09-17T15:56:02;2.15;;;0.80;;
73940;SDS011;62294;48.554;10.202;2022-09-17T16:08:44;0.47;;;0.47;;
73940;SDS011;62294;48.554;10.202;2022-09-17T16:11:12;0.65;;;0.60;;
73940;SDS011;62294;48.554;10.202;2022-09-17T16:13:39;2.72;;;0.60;;
73940;SDS011;62294;48.554;10.202;2022-09-17T16:16:07;0.80;;;0.80;;
73940;SDS011;62294;48.554;10.202;2022-09-17T16:18:40;0.90;;;0.68;;
73940;SDS011;62294;48.554;10.202;2022-09-17T16:21:09;1.85;;;0.88;;
73940;SDS011;62294;48.554;10.202;2022-09-17T16:23:36;0.82;;;0.60;;
73940;SDS011;62294;48.554;10.202;2022-09-17T16:26:03;2.78;;;0.80;;
73940;SDS011;62294;48.554;10.202;2022-09-17T16:28:31;0.77;;;0.70;;
73940;SDS011;62294;48.554;10.202;2022-09-17T16:30:58;1.20;;;0.90;;
73940;SDS011;62294;48.554;10.202;2022-09-17T16:33:25;4.35;;;1.30;;
73940;SDS011;62294;48.554;10.202;2022-09-17T16:35:56;1.50;;;0.90;;
73940;SDS011;62294;48.554;10.202;2022-09-17T16:38:24;2.47;;;1.00;;
73940;SDS011;62294;48.554;10.202;2022-09-17T16:40:51;2.05;;;1.15;;
73940;SDS011;62294;48.554;10.202;2022-09-17T16:43:18;2.08;;;1.10;;
73940;SDS011;62294;48.554;10.202;2022-09-17T16:45:56;1.15;;;1.05;;
73940;SDS011;62294;48.554;10.202;2022-09-17T16:48:24;2.13;;;1.20;;
73940;SDS011;62294;48.554;10.202;2022-09-17T16:50:51;3.15;;;1.10;;
73940;SDS011;62294;48.554;10.202;2022-09-17T16:53:17;2.17;;;1.15;;
73940;SDS011;62294;48.554;10.202;2022-09-17T16:55:44;1.27;;;1.17;;
73940;SDS011;62294;48.554;10.202;2022-09-17T16:58:11;2.80;;;1.10;;
73940;SDS011;62294;48.554;10.202;2022-09-17T17:00:37;1.63;;;0.80;;
73940;SDS011;62294;48.554;10.202;2022-09-17T17:03:03;2.22;;;1.52;;
73940;SDS011;62294;48.554;10.202;2022-09-17T17:05:30;0.93;;;0.88;;
73940;SDS011;62294;48.554;10.202;2022-09-17T17:08:01;0.80;;;0.80;;
73940;SDS011;62294;48.554;10.202;2022-09-17T17:10:32;3.15;;;1.20;;
73940;SDS011;62294;48.554;10.202;2022-09-17T17:12:58;4.03;;;1.05;;
73940;SDS011;62294;48.554;10.202;2022-09-17T17:15:25;3.83;;;1.50;;
73940;SDS011;62294;48.554;10.202;2022-09-17T17:17:52;1.77;;;1.10;;
73940;SDS011;62294;48.554;10.202;2022-09-17T17:20:18;2.10;;;1.35;;
73940;SDS011;62294;48.554;10.202;2022-09-17T17:22:45;3.10;;;1.05;;
73940;SDS011;62294;48.554;10.202;2022-09-17T17:25:12;1.02;;;0.85;;
73940;SDS011;62294;48.554;10.202;2022-09-17T17:27:39;3.30;;;1.40;;
73940;SDS011;62294;48.554;10.202;2022-09-17T17:30:07;1.40;;;1.00;;
73940;SDS011;62294;48.554;10.202;2022-09-17T17:32:34;0.80;;;0.80;;
73940;SDS011;62294;48.554;10.202;2022-09-17T17:35:02;1.55;;;1.00;;
73940;SDS011;62294;48.554;10.202;2022-09-17T17:37:29;2.20;;;1.38;;
73940;SDS011;62294;48.554;10.202;2022-09-17T17:39:56;1.48;;;1.17;;
73940;SDS011;62294;48.554;10.202;2022-09-17T17:42:23;2.03;;;1.10;;
73940;SDS011;62294;48.554;10.202;2022-09-17T17:44:50;1.92;;;0.90;;
73940;SDS011;62294;48.554;10.202;2022-09-17T17:47:16;0.90;;;0.90;;
73940;SDS011;62294;48.554;10.202;2022-09-17T17:49:43;2.97;;;1.00;;
73940;SDS011;62294;48.554;10.202;2022-09-17T17:52:09;1.48;;;1.10;;
73940;SDS011;62294;48.554;10.202;2022-09-17T17:54:36;2.20;;;1.10;;
73940;SDS011;62294;48.554;10.202;2022-09-17T17:57:02;1.58;;;0.77;;
73940;SDS011;62294;48.554;10.202;2022-09-17T17:59:29;2.05;;;1.10;;
73940;SDS011;62294;48.554;10.202;2022-09-17T18:01:55;3.13;;;0.90;;
73940;SDS011;62294;48.554;10.202;2022-09-17T18:04:22;2.15;;;0.98;;
73940;SDS011;62294;48.554;10.202;2022-09-17T18:06:49;1.35;;;0.70;;
73940;SDS011;62294;48.554;10.202;2022-09-17T18:09:16;2.55;;;0.90;;
73940;SDS011;62294;48.554;10.202;2022-09-17T18:11:42;3.80;;;1.00;;
73940;SDS011;62294;48.554;10.202;2022-09-17T18:14:10;2.25;;;1.00;;